sensor_id;sensor_type;location;lat;lon;timestamp;P1;durP1;ratioP1;P2;durP2;ratioP2
10293;SDS011;5192;50.328;7.610;2022-11-18T00:01:08;4.63;;;2.70;;
10293;SDS011;5192;50.328;7.610;2022-11-18T00:03:48;5.93;;;2.50;;
10293;SDS011;5192;50.328;7.610;2022-11-18T00:06:16;7.60;;;2.53;;
10293;SDS011;5192;50.328;7.610;2022-11-18T00:08:47;7.43;;;3.37;;
10293;SDS011;5192;50.328;7.610;2022-11-18T00:11:17;5.17;;;3.30;;
10293;SDS011;5192;50.328;7.610;2022-11-18T00:14:19;7.07;;;3.00;;
10293;SDS011;5192;50.328;7.610;2022-11-18T00:17:00;6.77;;;2.70;;
10293;SDS011;5192;50.328;7.610;2022-11-18T00:19:36;5.30;;;2.63;;
10293;SDS011;5192;50.328;7.610;2022-11-18T00:22:05;5.60;;;2.93;;
10293;SDS011;5192;50.328;7.610;2022-11-18T00:24:33;5.87;;;2.47;;
10293;SDS011;5192;50.328;7.610;2022-11-18T00:26:59;4.97;;;2.60;;
10293;SDS011;5192;50.328;7.610;2022-11-18T00:29:27;3.83;;;2.70;;
10293;SDS011;5192;50.328;7.610;2022-11-18T00:31:56;4.57;;;2.30;;
10293;SDS011;5192;50.328;7.610;2022-11-18T00:34:23;3.57;;;2.50;;
10293;SDS011;5192;50.328;7.610;2022-11-18T00:36:50;5.07;;;2.67;;
10293;SDS011;5192;50.328;7.610;2022-11-18T00:39:18;3.93;;;2.20;;
10293;SDS011;5192;50.328;7.610;2022-11-18T00:41:46;7.03;;;2.80;;
10293;SDS011;5192;50.328;7.610;2022-11-18T00:44:31;6.67;;;3.30;;
10293;SDS011;5192;50.328;7.610;2022-11-18T00:46:57;6.87;;;2.60;;
10293;SDS011;5192;50.328;7.610;2022-11-18T00:49:24;5.97;;;3.00;;
10293;SDS011;5192;50.328;7.610;2022-11-18T00:51:50;4.97;;;2.70;;
10293;SDS011;5192;50.328;7.610;2022-11-18T00:54:17;7.37;;;2.43;;
10293;SDS011;5192;50.328;7.610;2022-11-18T00:56:43;4.27;;;2.20;;
10293;SDS011;5192;50.328;7.610;2022-11-18T00:59:10;4.47;;;2.27;;
10293;SDS011;5192;50.328;7.610;2022-11-18T01:01:36;7.73;;;3.03;;
10293;SDS011;5192;50.328;7.610;2022-11-18T01:04:04;9.10;;;3.10;;
10293;SDS011;5192;50.328;7.610;2022-11-18T01:06:31;4.50;;;3.13;;
10293;SDS011;5192;50.328;7.610;2022-11-18T01:08:59;7.90;;;3.07;;
10293;SDS011;5192;50.328;7.610;2022-11-18T01:11:26;6.33;;;3.27;;
10293;SDS011;5192;50.328;7.610;2022-11-18T01:14:10;4.93;;;2.97;;
10293;SDS011;5192;50.328;7.610;2022-11-18T01:16:36;5.93;;;3.37;;
10293;SDS011;5192;50.328;7.610;2022-11-18T01:19:03;6.17;;;3.40;;
10293;SDS011;5192;50.328;7.610;2022-11-18T01:21:30;5.17;;;2.77;;
10293;SDS011;5192;50.328;7.610;2022-11-18T01:23:57;4.80;;;2.63;;
10293;SDS011;5192;50.328;7.610;2022-11-18T01:26:23;7.93;;;2.93;;
10293;SDS011;5192;50.328;7.610;2022-11-18T01:28:54;5.07;;;2.80;;
10293;SDS011;5192;50.328;7.610;2022-11-18T01:31:22;5.83;;;2.67;;
10293;SDS011;5192;50.328;7.610;2022-11-18T01:33:49;5.53;;;3.10;;
10293;SDS011;5192;50.328;7.610;2022-11-18T01:36:26;7.80;;;3.03;;
10293;SDS011;5192;50.328;7.610;2022-11-18T01:38:52;6.27;;;3.00;;
10293;SDS011;5192;50.328;7.610;2022-11-18T01:41:21;3.37;;;3.03;;
10293;SDS011;5192;50.328;7.610;2022-11-18T01:46:32;6.27;;;2.93;;
10293;SDS011;5192;50.328;7.610;2022-11-18T01:51:49;4.80;;;2.90;;
10293;SDS011;5192;50.328;7.610;2022-11-18T01:54:28;6.97;;;2.90;;
10293;SDS011;5192;50.328;7.610;2022-11-18T01:57:02;6.33;;;3.33;;
10293;SDS011;5192;50.328;7.610;2022-11-18T01:59:44;7.50;;;2.90;;
10293;SDS011;5192;50.328;7.610;2022-11-18T02:02:15;5.17;;;2.67;;
10293;SDS011;5192;50.328;7.610;2022-11-18T02:04:46;6.07;;;2.87;;
10293;SDS011;5192;50.328;7.610;2022-11-18T02:07:15;7.83;;;3.70;;
10293;SDS011;5192;50.328;7.610;2022-11-18T02:09:41;7.17;;;3.27;;
10293;SDS011;5192;50.328;7.610;2022-11-18T02:12:09;6.47;;;2.87;;
10293;SDS011;5192;50.328;7.610;2022-11-18T02:14:36;5.83;;;2.80;;
10293;SDS011;5192;50.328;7.610;2022-11-18T02:20:46;7.20;;;2.80;;
10293;SDS011;5192;50.328;7.610;2022-11-18T02:23:27;6.30;;;3.17;;
10293;SDS011;5192;50.328;7.610;2022-11-18T02:29:31;6.40;;;3.00;;
10293;SDS011;5192;50.328;7.610;2022-11-18T02:35:45;10.00;;;2.70;;
10293;SDS011;5192;50.328;7.610;2022-11-18T02:38:25;5.73;;;2.77;;
10293;SDS011;5192;50.328;7.610;2022-11-18T02:41:01;5.70;;;2.80;;
10293;SDS011;5192;50.328;7.610;2022-11-18T02:46:30;6.07;;;2.63;;
10293;SDS011;5192;50.328;7.610;2022-11-18T02:49:01;4.13;;;2.97;;
10293;SDS011;5192;50.328;7.610;2022-11-18T02:51:31;5.70;;;2.73;;
10293;SDS011;5192;50.328;7.610;2022-11-18T02:54:05;4.67;;;2.70;;
10293;SDS011;5192;50.328;7.610;2022-11-18T02:56:37;4.70;;;2.63;;
10293;SDS011;5192;50.328;7.610;2022-11-18T02:59:04;5.97;;;2.80;;
10293;SDS011;5192;50.328;7.610;2022-11-18T03:01:33;7.03;;;3.27;;
10293;SDS011;5192;50.328;7.610;2022-11-18T03:04:01;4.53;;;2.93;;
10293;SDS011;5192;50.328;7.610;2022-11-18T03:06:42;7.43;;;3.33;;
10293;SDS011;5192;50.328;7.610;2022-11-18T03:09:28;5.60;;;2.80;;
10293;SDS011;5192;50.328;7.610;2022-11-18T03:17:54;4.57;;;2.77;;
10293;SDS011;5192;50.328;7.610;2022-11-18T03:20:57;5.53;;;2.73;;
10293;SDS011;5192;50.328;7.610;2022-11-18T03:23:40;5.20;;;2.80;;
10293;SDS011;5192;50.328;7.610;2022-11-18T03:26:28;5.90;;;2.80;;
10293;SDS011;5192;50.328;7.610;2022-11-18T03:31:57;6.93;;;2.93;;
10293;SDS011;5192;50.328;7.610;2022-11-18T03:34:49;5.13;;;2.90;;
10293;SDS011;5192;50.328;7.610;2022-11-18T03:37:25;5.73;;;2.77;;
10293;SDS011;5192;50.328;7.610;2022-11-18T03:39:58;5.53;;;3.03;;
10293;SDS011;5192;50.328;7.610;2022-11-18T03:42:39;6.37;;;3.07;;
10293;SDS011;5192;50.328;7.610;2022-11-18T03:45:18;5.83;;;2.87;;
10293;SDS011;5192;50.328;7.610;2022-11-18T03:47:54;8.20;;;2.73;;
10293;SDS011;5192;50.328;7.610;2022-11-18T03:50:28;6.80;;;3.10;;
10293;SDS011;5192;50.328;7.610;2022-11-18T03:52:58;6.57;;;3.10;;
10293;SDS011;5192;50.328;7.610;2022-11-18T03:55:28;5.53;;;2.80;;
10293;SDS011;5192;50.328;7.610;2022-11-18T04:00:28;6.40;;;3.37;;
10293;SDS011;5192;50.328;7.610;2022-11-18T04:03:02;6.73;;;3.50;;
10293;SDS011;5192;50.328;7.610;2022-11-18T04:05:30;5.23;;;3.37;;
10293;SDS011;5192;50.328;7.610;2022-11-18T04:08:03;8.40;;;3.60;;
10293;SDS011;5192;50.328;7.610;2022-11-18T04:13:25;7.83;;;3.10;;
10293;SDS011;5192;50.328;7.610;2022-11-18T04:16:01;6.93;;;2.60;;
10293;SDS011;5192;50.328;7.610;2022-11-18T04:18:26;5.30;;;2.60;;
10293;SDS011;5192;50.328;7.610;2022-11-18T04:20:54;6.03;;;2.53;;
10293;SDS011;5192;50.328;7.610;2022-11-18T04:23:21;4.60;;;2.50;;
10293;SDS011;5192;50.328;7.610;2022-11-18T04:25:47;5.13;;;2.80;;
10293;SDS011;5192;50.328;7.610;2022-11-18T04:28:14;4.93;;;2.67;;
10293;SDS011;5192;50.328;7.610;2022-11-18T04:30:40;4.57;;;2.53;;
10293;SDS011;5192;50.328;7.610;2022-11-18T04:33:06;4.50;;;2.83;;
10293;SDS011;5192;50.328;7.610;2022-11-18T04:35:34;4.07;;;2.43;;
10293;SDS011;5192;50.328;7.610;2022-11-18T04:38:00;5.50;;;3.07;;
10293;SDS011;5192;50.328;7.610;2022-11-18T04:40:27;7.87;;;3.10;;
10293;SDS011;5192;50.328;7.610;2022-11-18T04:42:54;7.73;;;2.93;;
10293;SDS011;5192;50.328;7.610;2022-11-18T04:45:21;6.77;;;3.10;;
10293;SDS011;5192;50.328;7.610;2022-11-18T04:47:49;3.50;;;2.63;;
10293;SDS011;5192;50.328;7.610;2022-11-18T04:50:15;4.93;;;3.23;;
10293;SDS011;5192;50.328;7.610;2022-11-18T04:52:41;6.03;;;3.47;;
10293;SDS011;5192;50.328;7.610;2022-11-18T04:55:09;4.67;;;3.27;;
10293;SDS011;5192;50.328;7.610;2022-11-18T04:57:36;6.17;;;3.50;;
10293;SDS011;5192;50.328;7.610;2022-11-18T05:00:04;6.47;;;3.13;;
10293;SDS011;5192;50.328;7.610;2022-11-18T05:02:30;5.23;;;3.67;;
10293;SDS011;5192;50.328;7.610;2022-11-18T05:04:56;10.53;;;4.17;;
10293;SDS011;5192;50.328;7.610;2022-11-18T05:07:24;6.30;;;3.67;;
10293;SDS011;5192;50.328;7.610;2022-11-18T05:09:52;9.20;;;3.73;;
10293;SDS011;5192;50.328;7.610;2022-11-18T05:12:20;7.00;;;4.03;;
10293;SDS011;5192;50.328;7.610;2022-11-18T05:15:07;11.43;;;3.83;;
10293;SDS011;5192;50.328;7.610;2022-11-18T05:17:34;7.90;;;3.70;;
10293;SDS011;5192;50.328;7.610;2022-11-18T05:20:00;7.13;;;3.73;;
10293;SDS011;5192;50.328;7.610;2022-11-18T05:22:27;7.37;;;3.70;;
10293;SDS011;5192;50.328;7.610;2022-11-18T05:24:53;5.90;;;3.30;;
10293;SDS011;5192;50.328;7.610;2022-11-18T05:27:21;9.47;;;3.67;;
10293;SDS011;5192;50.328;7.610;2022-11-18T05:29:46;6.43;;;3.00;;
10293;SDS011;5192;50.328;7.610;2022-11-18T05:32:14;6.63;;;4.00;;
10293;SDS011;5192;50.328;7.610;2022-11-18T05:34:41;5.93;;;4.03;;
10293;SDS011;5192;50.328;7.610;2022-11-18T05:37:09;6.73;;;3.63;;
10293;SDS011;5192;50.328;7.610;2022-11-18T05:39:35;9.13;;;4.20;;
10293;SDS011;5192;50.328;7.610;2022-11-18T05:42:02;9.23;;;4.17;;
10293;SDS011;5192;50.328;7.610;2022-11-18T05:44:46;6.63;;;4.13;;
10293;SDS011;5192;50.328;7.610;2022-11-18T05:47:20;10.27;;;4.73;;
10293;SDS011;5192;50.328;7.610;2022-11-18T05:49:50;8.17;;;4.40;;
10293;SDS011;5192;50.328;7.610;2022-11-18T05:52:18;8.27;;;4.80;;
10293;SDS011;5192;50.328;7.610;2022-11-18T05:54:46;8.67;;;4.70;;
10293;SDS011;5192;50.328;7.610;2022-11-18T05:57:15;7.27;;;4.53;;
10293;SDS011;5192;50.328;7.610;2022-11-18T05:59:41;8.93;;;4.90;;
10293;SDS011;5192;50.328;7.610;2022-11-18T06:02:10;6.67;;;4.50;;
10293;SDS011;5192;50.328;7.610;2022-11-18T06:04:50;8.47;;;4.50;;
10293;SDS011;5192;50.328;7.610;2022-11-18T06:07:27;6.40;;;4.47;;
10293;SDS011;5192;50.328;7.610;2022-11-18T06:10:11;9.27;;;4.47;;
10293;SDS011;5192;50.328;7.610;2022-11-18T06:12:46;6.90;;;4.30;;
10293;SDS011;5192;50.328;7.610;2022-11-18T06:15:20;9.33;;;4.30;;
10293;SDS011;5192;50.328;7.610;2022-11-18T06:18:03;8.07;;;4.63;;
10293;SDS011;5192;50.328;7.610;2022-11-18T06:20:37;6.90;;;5.17;;
10293;SDS011;5192;50.328;7.610;2022-11-18T06:23:05;7.03;;;4.47;;
10293;SDS011;5192;50.328;7.610;2022-11-18T06:25:35;8.63;;;4.53;;
10293;SDS011;5192;50.328;7.610;2022-11-18T06:28:03;7.37;;;4.17;;
10293;SDS011;5192;50.328;7.610;2022-11-18T06:30:30;10.90;;;5.07;;
10293;SDS011;5192;50.328;7.610;2022-11-18T06:32:58;8.30;;;4.97;;
10293;SDS011;5192;50.328;7.610;2022-11-18T06:35:24;9.50;;;4.50;;
10293;SDS011;5192;50.328;7.610;2022-11-18T06:37:52;9.33;;;5.07;;
10293;SDS011;5192;50.328;7.610;2022-11-18T06:40:19;9.13;;;5.03;;
10293;SDS011;5192;50.328;7.610;2022-11-18T06:42:46;7.87;;;4.30;;
10293;SDS011;5192;50.328;7.610;2022-11-18T06:45:30;7.90;;;4.87;;
10293;SDS011;5192;50.328;7.610;2022-11-18T06:47:58;10.23;;;4.73;;
10293;SDS011;5192;50.328;7.610;2022-11-18T06:50:25;9.67;;;4.90;;
10293;SDS011;5192;50.328;7.610;2022-11-18T06:52:53;7.17;;;4.10;;
10293;SDS011;5192;50.328;7.610;2022-11-18T06:55:20;6.67;;;4.20;;
10293;SDS011;5192;50.328;7.610;2022-11-18T06:57:46;7.50;;;4.43;;
10293;SDS011;5192;50.328;7.610;2022-11-18T07:00:13;9.23;;;4.43;;
10293;SDS011;5192;50.328;7.610;2022-11-18T07:02:41;8.03;;;4.40;;
10293;SDS011;5192;50.328;7.610;2022-11-18T07:05:07;8.70;;;4.43;;
10293;SDS011;5192;50.328;7.610;2022-11-18T07:07:36;6.27;;;4.17;;
10293;SDS011;5192;50.328;7.610;2022-11-18T07:10:01;7.13;;;4.40;;
10293;SDS011;5192;50.328;7.610;2022-11-18T07:12:28;7.23;;;4.07;;
10293;SDS011;5192;50.328;7.610;2022-11-18T07:14:55;8.40;;;4.20;;
10293;SDS011;5192;50.328;7.610;2022-11-18T07:17:20;8.70;;;5.60;;
10293;SDS011;5192;50.328;7.610;2022-11-18T07:19:48;10.30;;;5.47;;
10293;SDS011;5192;50.328;7.610;2022-11-18T07:22:14;6.37;;;3.67;;
10293;SDS011;5192;50.328;7.610;2022-11-18T07:24:41;8.07;;;4.57;;
10293;SDS011;5192;50.328;7.610;2022-11-18T07:27:08;6.77;;;4.20;;
10293;SDS011;5192;50.328;7.610;2022-11-18T07:29:36;8.30;;;3.97;;
10293;SDS011;5192;50.328;7.610;2022-11-18T07:32:01;5.33;;;3.77;;
10293;SDS011;5192;50.328;7.610;2022-11-18T07:34:28;7.20;;;3.60;;
10293;SDS011;5192;50.328;7.610;2022-11-18T07:36:54;5.83;;;3.70;;
10293;SDS011;5192;50.328;7.610;2022-11-18T07:39:22;9.60;;;3.93;;
10293;SDS011;5192;50.328;7.610;2022-11-18T07:41:48;6.13;;;3.67;;
10293;SDS011;5192;50.328;7.610;2022-11-18T07:44:16;7.47;;;3.87;;
10293;SDS011;5192;50.328;7.610;2022-11-18T07:46:43;6.87;;;3.53;;
10293;SDS011;5192;50.328;7.610;2022-11-18T07:49:09;8.23;;;4.03;;
10293;SDS011;5192;50.328;7.610;2022-11-18T07:51:37;11.23;;;4.20;;
10293;SDS011;5192;50.328;7.610;2022-11-18T07:54:09;6.90;;;3.97;;
10293;SDS011;5192;50.328;7.610;2022-11-18T07:56:38;7.27;;;4.23;;
10293;SDS011;5192;50.328;7.610;2022-11-18T07:59:06;6.10;;;3.80;;
10293;SDS011;5192;50.328;7.610;2022-11-18T08:01:33;6.43;;;4.33;;
10293;SDS011;5192;50.328;7.610;2022-11-18T08:04:08;5.57;;;4.33;;
10293;SDS011;5192;50.328;7.610;2022-11-18T08:06:35;6.07;;;4.00;;
10293;SDS011;5192;50.328;7.610;2022-11-18T08:09:04;8.73;;;4.40;;
10293;SDS011;5192;50.328;7.610;2022-11-18T08:11:31;5.80;;;4.00;;
10293;SDS011;5192;50.328;7.610;2022-11-18T08:13:57;7.17;;;4.93;;
10293;SDS011;5192;50.328;7.610;2022-11-18T08:16:26;8.03;;;4.10;;
10293;SDS011;5192;50.328;7.610;2022-11-18T08:18:52;6.47;;;4.00;;
10293;SDS011;5192;50.328;7.610;2022-11-18T08:21:20;6.13;;;4.43;;
10293;SDS011;5192;50.328;7.610;2022-11-18T08:23:51;6.77;;;4.57;;
10293;SDS011;5192;50.328;7.610;2022-11-18T08:26:21;6.83;;;4.00;;
10293;SDS011;5192;50.328;7.610;2022-11-18T08:28:51;6.37;;;4.07;;
10293;SDS011;5192;50.328;7.610;2022-11-18T08:31:23;7.00;;;3.97;;
10293;SDS011;5192;50.328;7.610;2022-11-18T08:33:59;6.50;;;3.83;;
10293;SDS011;5192;50.328;7.610;2022-11-18T08:36:30;6.60;;;3.77;;
10293;SDS011;5192;50.328;7.610;2022-11-18T08:38:59;6.63;;;3.23;;
10293;SDS011;5192;50.328;7.610;2022-11-18T08:41:39;8.23;;;3.43;;
10293;SDS011;5192;50.328;7.610;2022-11-18T08:44:09;5.13;;;3.50;;
10293;SDS011;5192;50.328;7.610;2022-11-18T08:46:38;5.40;;;3.43;;
10293;SDS011;5192;50.328;7.610;2022-11-18T08:49:07;3.60;;;3.30;;
10293;SDS011;5192;50.328;7.610;2022-11-18T08:51:33;4.40;;;2.93;;
10293;SDS011;5192;50.328;7.610;2022-11-18T08:54:00;4.97;;;3.10;;
10293;SDS011;5192;50.328;7.610;2022-11-18T08:56:27;7.07;;;3.73;;
10293;SDS011;5192;50.328;7.610;2022-11-18T08:58:52;7.40;;;3.40;;
10293;SDS011;5192;50.328;7.610;2022-11-18T09:01:20;5.73;;;3.60;;
10293;SDS011;5192;50.328;7.610;2022-11-18T09:03:47;4.50;;;3.50;;
10293;SDS011;5192;50.328;7.610;2022-11-18T09:06:14;3.47;;;2.87;;
10293;SDS011;5192;50.328;7.610;2022-11-18T09:08:54;8.17;;;3.17;;
10293;SDS011;5192;50.328;7.610;2022-11-18T09:11:21;5.90;;;3.47;;
10293;SDS011;5192;50.328;7.610;2022-11-18T09:13:53;3.70;;;3.00;;
10293;SDS011;5192;50.328;7.610;2022-11-18T09:16:23;3.70;;;2.97;;
10293;SDS011;5192;50.328;7.610;2022-11-18T09:18:51;6.70;;;3.43;;
10293;SDS011;5192;50.328;7.610;2022-11-18T09:21:18;4.73;;;3.40;;
10293;SDS011;5192;50.328;7.610;2022-11-18T09:23:45;3.60;;;2.80;;
10293;SDS011;5192;50.328;7.610;2022-11-18T09:26:12;6.90;;;3.50;;
10293;SDS011;5192;50.328;7.610;2022-11-18T09:28:40;5.93;;;3.27;;
10293;SDS011;5192;50.328;7.610;2022-11-18T09:31:08;5.53;;;3.30;;
10293;SDS011;5192;50.328;7.610;2022-11-18T09:33:54;6.50;;;3.60;;
10293;SDS011;5192;50.328;7.610;2022-11-18T09:36:22;5.30;;;3.57;;
10293;SDS011;5192;50.328;7.610;2022-11-18T09:38:50;5.40;;;3.07;;
10293;SDS011;5192;50.328;7.610;2022-11-18T09:47:28;8.43;;;5.23;;
10293;SDS011;5192;50.328;7.610;2022-11-18T09:50:00;8.93;;;5.83;;
10293;SDS011;5192;50.328;7.610;2022-11-18T09:52:37;6.57;;;5.27;;
10293;SDS011;5192;50.328;7.610;2022-11-18T09:55:18;11.03;;;5.17;;
10293;SDS011;5192;50.328;7.610;2022-11-18T09:57:47;8.23;;;4.23;;
10293;SDS011;5192;50.328;7.610;2022-11-18T10:00:21;7.30;;;3.87;;
10293;SDS011;5192;50.328;7.610;2022-11-18T10:09:02;5.00;;;3.20;;
10293;SDS011;5192;50.328;7.610;2022-11-18T10:15:26;6.00;;;3.33;;
10293;SDS011;5192;50.328;7.610;2022-11-18T10:18:29;6.33;;;3.20;;
10293;SDS011;5192;50.328;7.610;2022-11-18T10:27:01;5.30;;;3.13;;
10293;SDS011;5192;50.328;7.610;2022-11-18T10:29:34;7.13;;;2.77;;
10293;SDS011;5192;50.328;7.610;2022-11-18T10:32:04;4.03;;;2.67;;
10293;SDS011;5192;50.328;7.610;2022-11-18T10:34:55;7.40;;;2.73;;
10293;SDS011;5192;50.328;7.610;2022-11-18T10:40:07;5.43;;;2.50;;
10293;SDS011;5192;50.328;7.610;2022-11-18T10:42:52;4.30;;;2.50;;
10293;SDS011;5192;50.328;7.610;2022-11-18T10:50:50;4.13;;;2.70;;
10293;SDS011;5192;50.328;7.610;2022-11-18T10:53:32;4.47;;;2.73;;
10293;SDS011;5192;50.328;7.610;2022-11-18T10:56:18;3.80;;;2.27;;
10293;SDS011;5192;50.328;7.610;2022-11-18T10:58:46;4.33;;;2.80;;
10293;SDS011;5192;50.328;7.610;2022-11-18T11:01:22;4.60;;;2.50;;
10293;SDS011;5192;50.328;7.610;2022-11-18T11:03:59;4.47;;;2.70;;
10293;SDS011;5192;50.328;7.610;2022-11-18T11:06:35;3.93;;;2.23;;
10293;SDS011;5192;50.328;7.610;2022-11-18T11:09:05;4.50;;;2.23;;
10293;SDS011;5192;50.328;7.610;2022-11-18T11:12:02;2.80;;;1.87;;
10293;SDS011;5192;50.328;7.610;2022-11-18T11:17:39;3.67;;;1.43;;
10293;SDS011;5192;50.328;7.610;2022-11-18T11:20:34;2.40;;;1.37;;
10293;SDS011;5192;50.328;7.610;2022-11-18T11:23:07;2.53;;;1.50;;
10293;SDS011;5192;50.328;7.610;2022-11-18T11:28:40;3.80;;;1.70;;
10293;SDS011;5192;50.328;7.610;2022-11-18T11:49:47;1.87;;;1.00;;
10293;SDS011;5192;50.328;7.610;2022-11-18T12:04:49;2.93;;;1.37;;
10293;SDS011;5192;50.328;7.610;2022-11-18T12:07:20;4.13;;;1.60;;
10293;SDS011;5192;50.328;7.610;2022-11-18T12:10:06;1.77;;;1.00;;
10293;SDS011;5192;50.328;7.610;2022-11-18T12:19:16;4.33;;;1.57;;
10293;SDS011;5192;50.328;7.610;2022-11-18T12:24:25;4.40;;;1.50;;
10293;SDS011;5192;50.328;7.610;2022-11-18T12:26:58;3.87;;;1.40;;
10293;SDS011;5192;50.328;7.610;2022-11-18T12:32:27;4.67;;;1.13;;
10293;SDS011;5192;50.328;7.610;2022-11-18T12:40:30;5.13;;;2.70;;
10293;SDS011;5192;50.328;7.610;2022-11-18T12:51:47;4.00;;;1.67;;
10293;SDS011;5192;50.328;7.610;2022-11-18T12:54:24;4.63;;;1.50;;
10293;SDS011;5192;50.328;7.610;2022-11-18T12:57:25;4.60;;;1.57;;
10293;SDS011;5192;50.328;7.610;2022-11-18T13:00:17;2.97;;;1.30;;
10293;SDS011;5192;50.328;7.610;2022-11-18T13:02:58;2.07;;;1.03;;
10293;SDS011;5192;50.328;7.610;2022-11-18T13:05:28;5.20;;;1.50;;
10293;SDS011;5192;50.328;7.610;2022-11-18T13:13:57;5.43;;;1.20;;
10293;SDS011;5192;50.328;7.610;2022-11-18T13:16:48;4.13;;;1.27;;
10293;SDS011;5192;50.328;7.610;2022-11-18T13:19:33;3.40;;;1.33;;
10293;SDS011;5192;50.328;7.610;2022-11-18T13:22:00;3.83;;;1.23;;
10293;SDS011;5192;50.328;7.610;2022-11-18T13:24:50;2.43;;;1.23;;
10293;SDS011;5192;50.328;7.610;2022-11-18T13:30:12;3.77;;;1.33;;
10293;SDS011;5192;50.328;7.610;2022-11-18T13:32:46;4.20;;;1.30;;
10293;SDS011;5192;50.328;7.610;2022-11-18T13:35:22;2.53;;;1.20;;
10293;SDS011;5192;50.328;7.610;2022-11-18T13:40:44;3.27;;;1.50;;
10293;SDS011;5192;50.328;7.610;2022-11-18T13:43:31;3.20;;;1.23;;
10293;SDS011;5192;50.328;7.610;2022-11-18T13:45:59;3.03;;;1.30;;
10293;SDS011;5192;50.328;7.610;2022-11-18T13:48:31;3.87;;;1.27;;
10293;SDS011;5192;50.328;7.610;2022-11-18T13:51:00;3.47;;;1.80;;
10293;SDS011;5192;50.328;7.610;2022-11-18T13:56:19;3.27;;;1.50;;
10293;SDS011;5192;50.328;7.610;2022-11-18T14:01:45;3.90;;;1.40;;
10293;SDS011;5192;50.328;7.610;2022-11-18T14:04:21;3.83;;;1.70;;
10293;SDS011;5192;50.328;7.610;2022-11-18T14:06:52;3.73;;;1.53;;
10293;SDS011;5192;50.328;7.610;2022-11-18T14:09:55;3.93;;;1.33;;
10293;SDS011;5192;50.328;7.610;2022-11-18T14:12:27;3.07;;;1.30;;
10293;SDS011;5192;50.328;7.610;2022-11-18T14:17:53;5.10;;;1.60;;
10293;SDS011;5192;50.328;7.610;2022-11-18T14:20:29;3.13;;;1.20;;
10293;SDS011;5192;50.328;7.610;2022-11-18T14:22:57;3.67;;;1.67;;
10293;SDS011;5192;50.328;7.610;2022-11-18T14:25:29;3.87;;;1.20;;
10293;SDS011;5192;50.328;7.610;2022-11-18T14:28:32;3.73;;;1.30;;
10293;SDS011;5192;50.328;7.610;2022-11-18T14:37:05;3.27;;;1.10;;
10293;SDS011;5192;50.328;7.610;2022-11-18T14:39:37;4.10;;;1.37;;
10293;SDS011;5192;50.328;7.610;2022-11-18T14:42:05;2.70;;;1.40;;
10293;SDS011;5192;50.328;7.610;2022-11-18T14:44:38;3.97;;;1.57;;
10293;SDS011;5192;50.328;7.610;2022-11-18T14:47:08;4.67;;;1.80;;
10293;SDS011;5192;50.328;7.610;2022-11-18T14:49:43;3.27;;;1.40;;
10293;SDS011;5192;50.328;7.610;2022-11-18T14:52:10;5.97;;;2.10;;
10293;SDS011;5192;50.328;7.610;2022-11-18T14:54:37;5.10;;;2.43;;
10293;SDS011;5192;50.328;7.610;2022-11-18T14:57:04;4.67;;;2.97;;
10293;SDS011;5192;50.328;7.610;2022-11-18T14:59:39;3.80;;;2.43;;
10293;SDS011;5192;50.328;7.610;2022-11-18T15:02:16;4.30;;;2.63;;
10293;SDS011;5192;50.328;7.610;2022-11-18T15:04:43;5.57;;;2.60;;
10293;SDS011;5192;50.328;7.610;2022-11-18T15:07:13;6.70;;;2.50;;
10293;SDS011;5192;50.328;7.610;2022-11-18T15:09:41;3.43;;;1.90;;
10293;SDS011;5192;50.328;7.610;2022-11-18T15:12:08;5.37;;;1.67;;
10293;SDS011;5192;50.328;7.610;2022-11-18T15:14:33;2.03;;;1.30;;
10293;SDS011;5192;50.328;7.610;2022-11-18T15:17:00;4.13;;;1.83;;
10293;SDS011;5192;50.328;7.610;2022-11-18T15:19:27;2.57;;;1.40;;
10293;SDS011;5192;50.328;7.610;2022-11-18T15:21:54;3.80;;;1.20;;
10293;SDS011;5192;50.328;7.610;2022-11-18T15:24:22;5.37;;;1.30;;
10293;SDS011;5192;50.328;7.610;2022-11-18T15:26:47;2.47;;;1.10;;
10293;SDS011;5192;50.328;7.610;2022-11-18T15:29:23;3.60;;;1.23;;
10293;SDS011;5192;50.328;7.610;2022-11-18T15:31:50;3.27;;;1.20;;
10293;SDS011;5192;50.328;7.610;2022-11-18T15:34:17;2.93;;;1.20;;
10293;SDS011;5192;50.328;7.610;2022-11-18T15:36:44;4.77;;;1.40;;
10293;SDS011;5192;50.328;7.610;2022-11-18T15:39:14;4.40;;;1.70;;
10293;SDS011;5192;50.328;7.610;2022-11-18T15:41:41;4.13;;;1.20;;
10293;SDS011;5192;50.328;7.610;2022-11-18T15:44:09;1.43;;;1.03;;
10293;SDS011;5192;50.328;7.610;2022-11-18T15:46:35;2.67;;;1.30;;
10293;SDS011;5192;50.328;7.610;2022-11-18T15:49:04;2.43;;;1.20;;
10293;SDS011;5192;50.328;7.610;2022-11-18T15:51:30;2.03;;;1.47;;
10293;SDS011;5192;50.328;7.610;2022-11-18T15:53:59;6.03;;;1.57;;
10293;SDS011;5192;50.328;7.610;2022-11-18T15:56:26;2.63;;;1.30;;
10293;SDS011;5192;50.328;7.610;2022-11-18T15:58:56;2.97;;;1.47;;
10293;SDS011;5192;50.328;7.610;2022-11-18T16:01:45;4.60;;;1.40;;
10293;SDS011;5192;50.328;7.610;2022-11-18T16:04:17;2.83;;;1.37;;
10293;SDS011;5192;50.328;7.610;2022-11-18T16:06:47;3.17;;;1.30;;
10293;SDS011;5192;50.328;7.610;2022-11-18T16:09:32;2.20;;;1.33;;
10293;SDS011;5192;50.328;7.610;2022-11-18T16:12:21;5.07;;;1.53;;
10293;SDS011;5192;50.328;7.610;2022-11-18T16:15:06;1.90;;;1.23;;
10293;SDS011;5192;50.328;7.610;2022-11-18T16:17:54;2.33;;;1.23;;
10293;SDS011;5192;50.328;7.610;2022-11-18T16:20:20;3.10;;;1.40;;
10293;SDS011;5192;50.328;7.610;2022-11-18T16:22:48;3.97;;;1.50;;
10293;SDS011;5192;50.328;7.610;2022-11-18T16:25:17;4.17;;;1.67;;
10293;SDS011;5192;50.328;7.610;2022-11-18T16:27:44;1.57;;;1.27;;
10293;SDS011;5192;50.328;7.610;2022-11-18T16:30:10;2.40;;;1.20;;
10293;SDS011;5192;50.328;7.610;2022-11-18T16:32:58;3.63;;;1.50;;
10293;SDS011;5192;50.328;7.610;2022-11-18T16:35:25;3.90;;;1.63;;
10293;SDS011;5192;50.328;7.610;2022-11-18T16:37:52;3.73;;;1.50;;
10293;SDS011;5192;50.328;7.610;2022-11-18T16:40:18;4.60;;;1.47;;
10293;SDS011;5192;50.328;7.610;2022-11-18T16:42:50;1.93;;;1.37;;
10293;SDS011;5192;50.328;7.610;2022-11-18T16:45:17;2.93;;;1.87;;
10293;SDS011;5192;50.328;7.610;2022-11-18T16:47:45;4.93;;;1.60;;
10293;SDS011;5192;50.328;7.610;2022-11-18T16:50:12;3.67;;;1.63;;
10293;SDS011;5192;50.328;7.610;2022-11-18T16:52:38;3.33;;;1.50;;
10293;SDS011;5192;50.328;7.610;2022-11-18T16:55:05;3.40;;;1.67;;
10293;SDS011;5192;50.328;7.610;2022-11-18T16:57:30;3.43;;;1.70;;
10293;SDS011;5192;50.328;7.610;2022-11-18T16:59:58;2.90;;;1.60;;
10293;SDS011;5192;50.328;7.610;2022-11-18T17:02:24;3.67;;;1.70;;
10293;SDS011;5192;50.328;7.610;2022-11-18T17:04:51;3.20;;;1.67;;
10293;SDS011;5192;50.328;7.610;2022-11-18T17:07:17;3.20;;;1.60;;
10293;SDS011;5192;50.328;7.610;2022-11-18T17:09:43;2.63;;;1.40;;
10293;SDS011;5192;50.328;7.610;2022-11-18T17:12:09;5.10;;;1.80;;
10293;SDS011;5192;50.328;7.610;2022-11-18T17:14:37;3.13;;;1.73;;
10293;SDS011;5192;50.328;7.610;2022-11-18T17:17:04;4.50;;;1.50;;
10293;SDS011;5192;50.328;7.610;2022-11-18T17:19:31;1.70;;;1.43;;
10293;SDS011;5192;50.328;7.610;2022-11-18T17:21:58;3.63;;;1.77;;
10293;SDS011;5192;50.328;7.610;2022-11-18T17:24:24;3.03;;;1.43;;
10293;SDS011;5192;50.328;7.610;2022-11-18T17:26:51;4.13;;;2.73;;
10293;SDS011;5192;50.328;7.610;2022-11-18T17:29:20;2.70;;;1.33;;
10293;SDS011;5192;50.328;7.610;2022-11-18T17:31:46;2.90;;;1.80;;
10293;SDS011;5192;50.328;7.610;2022-11-18T17:34:13;3.83;;;1.77;;
10293;SDS011;5192;50.328;7.610;2022-11-18T17:36:40;3.23;;;1.40;;
10293;SDS011;5192;50.328;7.610;2022-11-18T17:39:07;4.17;;;1.53;;
10293;SDS011;5192;50.328;7.610;2022-11-18T17:41:34;3.23;;;1.60;;
10293;SDS011;5192;50.328;7.610;2022-11-18T17:44:19;2.10;;;1.37;;
10293;SDS011;5192;50.328;7.610;2022-11-18T17:46:46;5.27;;;1.50;;
10293;SDS011;5192;50.328;7.610;2022-11-18T17:49:16;4.67;;;1.50;;
10293;SDS011;5192;50.328;7.610;2022-11-18T17:51:45;5.53;;;1.60;;
10293;SDS011;5192;50.328;7.610;2022-11-18T17:54:11;3.73;;;1.53;;
10293;SDS011;5192;50.328;7.610;2022-11-18T17:56:38;3.03;;;1.20;;
10293;SDS011;5192;50.328;7.610;2022-11-18T17:59:06;5.60;;;1.70;;